sensor_id;sensor_type;location;lat;lon;timestamp;pressure;altitude;pressure_sealevel;temperature;humidity
40946;BME280;55635;50.264;11.918;2022-10-16T00:00:04;95475.44;;;16.58;99.75
40946;BME280;55635;50.264;11.918;2022-10-16T00:02:45;95491.78;;;16.68;99.47
40946;BME280;55635;50.264;11.918;2022-10-16T00:05:26;95478.53;;;16.73;98.79
40946;BME280;55635;50.264;11.918;2022-10-16T00:08:08;95468.56;;;16.80;97.86
40946;BME280;55635;50.264;11.918;2022-10-16T00:10:49;95499.06;;;16.61;99.09
40946;BME280;55635;50.264;11.918;2022-10-16T00:13:32;95488.66;;;16.53;99.94
40946;BME280;55635;50.264;11.918;2022-10-16T00:16:13;95466.81;;;16.38;100.00
40946;BME280;55635;50.264;11.918;2022-10-16T00:18:54;95475.47;;;16.70;98.89
40946;BME280;55635;50.264;11.918;2022-10-16T00:21:35;95493.44;;;16.69;98.66
40946;BME280;55635;50.264;11.918;2022-10-16T00:24:16;95495.25;;;16.57;98.62
40946;BME280;55635;50.264;11.918;2022-10-16T00:26:57;95497.13;;;16.68;100.00
40946;BME280;55635;50.264;11.918;2022-10-16T00:29:38;95489.09;;;16.50;99.37
40946;BME280;55635;50.264;11.918;2022-10-16T00:32:19;95464.50;;;16.42;100.00
40946;BME280;55635;50.264;11.918;2022-10-16T00:35:00;95480.09;;;16.81;98.79
40946;BME280;55635;50.264;11.918;2022-10-16T00:37:41;95484.88;;;16.61;99.63
40946;BME280;55635;50.264;11.918;2022-10-16T00:40:21;95477.38;;;16.69;99.04
40946;BME280;55635;50.264;11.918;2022-10-16T00:43:04;95486.97;;;16.59;99.47
40946;BME280;55635;50.264;11.918;2022-10-16T00:45:50;95475.13;;;16.48;99.63
40946;BME280;55635;50.264;11.918;2022-10-16T00:48:31;95490.38;;;16.66;99.61
40946;BME280;55635;50.264;11.918;2022-10-16T00:51:12;95496.81;;;16.76;98.77
40946;BME280;55635;50.264;11.918;2022-10-16T00:53:53;95492.31;;;16.41;100.00
40946;BME280;55635;50.264;11.918;2022-10-16T00:56:33;95485.38;;;16.51;99.35
40946;BME280;55635;50.264;11.918;2022-10-16T00:59:39;95496.03;;;16.58;98.65
40946;BME280;55635;50.264;11.918;2022-10-16T01:02:20;95495.81;;;16.41;100.00
40946;BME280;55635;50.264;11.918;2022-10-16T01:05:01;95492.31;;;16.59;99.77
40946;BME280;55635;50.264;11.918;2022-10-16T01:08:02;95508.00;;;16.55;100.00
40946;BME280;55635;50.264;11.918;2022-10-16T01:10:57;95508.88;;;16.31;100.00
40946;BME280;55635;50.264;11.918;2022-10-16T01:13:42;95480.03;;;16.15;100.00
40946;BME280;55635;50.264;11.918;2022-10-16T01:16:37;95500.72;;;16.44;100.00
40946;BME280;55635;50.264;11.918;2022-10-16T01:22:10;95499.19;;;16.48;100.00
40946;BME280;55635;50.264;11.918;2022-10-16T01:24:51;95514.31;;;16.61;100.00
40946;BME280;55635;50.264;11.918;2022-10-16T01:27:35;95525.84;;;16.61;99.44
40946;BME280;55635;50.264;11.918;2022-10-16T01:30:30;95519.19;;;16.82;98.22
40946;BME280;55635;50.264;11.918;2022-10-16T01:33:24;95510.94;;;16.83;96.81
40946;BME280;55635;50.264;11.918;2022-10-16T01:36:14;95518.63;;;16.62;97.65
40946;BME280;55635;50.264;11.918;2022-10-16T01:38:56;95516.78;;;16.62;98.31
40946;BME280;55635;50.264;11.918;2022-10-16T01:41:56;95513.94;;;16.75;96.46
40946;BME280;55635;50.264;11.918;2022-10-16T01:44:41;95511.94;;;16.53;97.24
40946;BME280;55635;50.264;11.918;2022-10-16T01:47:24;95515.13;;;16.79;96.40
40946;BME280;55635;50.264;11.918;2022-10-16T01:50:06;95510.81;;;16.78;96.31
40946;BME280;55635;50.264;11.918;2022-10-16T01:52:50;95514.28;;;16.79;96.06
40946;BME280;55635;50.264;11.918;2022-10-16T01:55:35;95505.50;;;16.60;96.62
40946;BME280;55635;50.264;11.918;2022-10-16T01:58:18;95517.47;;;16.51;98.16
40946;BME280;55635;50.264;11.918;2022-10-16T02:00:59;95504.41;;;16.43;98.71
40946;BME280;55635;50.264;11.918;2022-10-16T02:03:40;95491.47;;;16.40;98.71
40946;BME280;55635;50.264;11.918;2022-10-16T02:06:23;95509.50;;;16.69;97.88
40946;BME280;55635;50.264;11.918;2022-10-16T02:09:05;95498.53;;;16.53;98.71
40946;BME280;55635;50.264;11.918;2022-10-16T02:11:46;95493.94;;;16.42;98.96
40946;BME280;55635;50.264;11.918;2022-10-16T02:14:29;95506.72;;;16.40;99.99
40946;BME280;55635;50.264;11.918;2022-10-16T02:17:14;95502.66;;;16.55;99.40
40946;BME280;55635;50.264;11.918;2022-10-16T02:19:56;95504.50;;;16.55;98.83
40946;BME280;55635;50.264;11.918;2022-10-16T02:22:40;95513.19;;;16.50;99.27
40946;BME280;55635;50.264;11.918;2022-10-16T02:25:32;95509.69;;;16.31;100.00
40946;BME280;55635;50.264;11.918;2022-10-16T02:28:20;95521.41;;;16.55;100.00
40946;BME280;55635;50.264;11.918;2022-10-16T02:31:04;95522.13;;;16.44;100.00
40946;BME280;55635;50.264;11.918;2022-10-16T02:33:46;95490.16;;;16.31;99.59
40946;BME280;55635;50.264;11.918;2022-10-16T02:36:27;95487.34;;;16.62;98.07
40946;BME280;55635;50.264;11.918;2022-10-16T02:39:08;95522.81;;;16.58;97.91
40946;BME280;55635;50.264;11.918;2022-10-16T02:41:50;95482.34;;;16.66;96.28
40946;BME280;55635;50.264;11.918;2022-10-16T02:44:30;95534.91;;;16.78;98.06
40946;BME280;55635;50.264;11.918;2022-10-16T02:47:11;95544.38;;;17.11;95.71
40946;BME280;55635;50.264;11.918;2022-10-16T02:49:53;95540.53;;;16.88;95.45
40946;BME280;55635;50.264;11.918;2022-10-16T02:52:33;95539.78;;;17.00;95.45
40946;BME280;55635;50.264;11.918;2022-10-16T02:55:14;95532.25;;;16.78;96.46
40946;BME280;55635;50.264;11.918;2022-10-16T02:57:55;95522.88;;;16.69;97.32
40946;BME280;55635;50.264;11.918;2022-10-16T03:00:36;95519.00;;;16.65;97.34
40946;BME280;55635;50.264;11.918;2022-10-16T03:03:17;95537.63;;;16.60;98.10
40946;BME280;55635;50.264;11.918;2022-10-16T03:05:57;95553.94;;;16.88;97.05
40946;BME280;55635;50.264;11.918;2022-10-16T03:08:38;95524.41;;;16.77;97.92
40946;BME280;55635;50.264;11.918;2022-10-16T03:11:19;95548.31;;;16.60;98.67
40946;BME280;55635;50.264;11.918;2022-10-16T03:14:00;95558.22;;;16.60;99.44
40946;BME280;55635;50.264;11.918;2022-10-16T03:16:41;95562.72;;;16.77;99.12
40946;BME280;55635;50.264;11.918;2022-10-16T03:19:22;95554.91;;;16.76;98.95
40946;BME280;55635;50.264;11.918;2022-10-16T03:22:02;95558.78;;;16.44;100.00
40946;BME280;55635;50.264;11.918;2022-10-16T03:24:43;95562.28;;;16.44;100.00
40946;BME280;55635;50.264;11.918;2022-10-16T03:27:24;95549.03;;;16.31;100.00
40946;BME280;55635;50.264;11.918;2022-10-16T03:30:06;95559.78;;;16.43;100.00
40946;BME280;55635;50.264;11.918;2022-10-16T03:32:47;95549.78;;;16.38;100.00
40946;BME280;55635;50.264;11.918;2022-10-16T03:35:28;95562.41;;;16.31;100.00
40946;BME280;55635;50.264;11.918;2022-10-16T03:38:10;95552.28;;;16.33;100.00
40946;BME280;55635;50.264;11.918;2022-10-16T03:40:51;95556.94;;;16.62;98.71
40946;BME280;55635;50.264;11.918;2022-10-16T03:43:31;95535.19;;;16.88;95.47
40946;BME280;55635;50.264;11.918;2022-10-16T03:46:12;95543.19;;;17.07;92.46
40946;BME280;55635;50.264;11.918;2022-10-16T03:48:53;95548.38;;;16.90;92.16
40946;BME280;55635;50.264;11.918;2022-10-16T03:51:34;95556.34;;;16.60;93.13
40946;BME280;55635;50.264;11.918;2022-10-16T03:54:15;95546.53;;;16.72;93.19
40946;BME280;55635;50.264;11.918;2022-10-16T03:56:56;95546.69;;;16.59;93.80
40946;BME280;55635;50.264;11.918;2022-10-16T03:59:36;95548.44;;;16.47;94.06
40946;BME280;55635;50.264;11.918;2022-10-16T04:02:17;95553.94;;;16.52;94.19
40946;BME280;55635;50.264;11.918;2022-10-16T04:04:58;95568.44;;;16.99;92.71
40946;BME280;55635;50.264;11.918;2022-10-16T04:07:39;95563.66;;;17.01;92.41
40946;BME280;55635;50.264;11.918;2022-10-16T04:10:20;95566.25;;;17.08;91.77
40946;BME280;55635;50.264;11.918;2022-10-16T04:13:00;95578.16;;;17.41;90.20
40946;BME280;55635;50.264;11.918;2022-10-16T04:15:41;95567.06;;;17.38;89.68
40946;BME280;55635;50.264;11.918;2022-10-16T04:18:22;95585.63;;;17.39;89.35
40946;BME280;55635;50.264;11.918;2022-10-16T04:21:07;95568.31;;;17.24;89.76
40946;BME280;55635;50.264;11.918;2022-10-16T04:23:48;95560.41;;;17.29;90.49
40946;BME280;55635;50.264;11.918;2022-10-16T04:26:30;95551.28;;;17.00;91.70
40946;BME280;55635;50.264;11.918;2022-10-16T04:29:10;95572.69;;;16.88;93.67
40946;BME280;55635;50.264;11.918;2022-10-16T04:31:51;95573.91;;;16.56;94.52
40946;BME280;55635;50.264;11.918;2022-10-16T04:34:32;95565.19;;;16.18;97.62
40946;BME280;55635;50.264;11.918;2022-10-16T04:37:13;95573.25;;;16.36;97.76
40946;BME280;55635;50.264;11.918;2022-10-16T04:39:54;95569.75;;;16.17;100.00
40946;BME280;55635;50.264;11.918;2022-10-16T04:42:34;95560.16;;;16.28;100.00
40946;BME280;55635;50.264;11.918;2022-10-16T04:45:15;95571.78;;;16.40;99.85
40946;BME280;55635;50.264;11.918;2022-10-16T04:47:57;95566.03;;;16.37;98.97
40946;BME280;55635;50.264;11.918;2022-10-16T04:50:38;95540.16;;;16.30;99.04
40946;BME280;55635;50.264;11.918;2022-10-16T04:53:19;95573.56;;;16.46;99.20
40946;BME280;55635;50.264;11.918;2022-10-16T04:56:00;95582.97;;;16.73;98.40
40946;BME280;55635;50.264;11.918;2022-10-16T04:58:41;95580.66;;;16.77;97.86
40946;BME280;55635;50.264;11.918;2022-10-16T05:01:22;95582.38;;;16.71;98.24
40946;BME280;55635;50.264;11.918;2022-10-16T05:04:02;95579.53;;;17.03;96.14
40946;BME280;55635;50.264;11.918;2022-10-16T05:06:43;95582.88;;;17.28;94.56
40946;BME280;55635;50.264;11.918;2022-10-16T05:09:24;95579.19;;;17.40;93.36
40946;BME280;55635;50.264;11.918;2022-10-16T05:12:05;95582.53;;;17.24;93.07
40946;BME280;55635;50.264;11.918;2022-10-16T05:14:46;95567.81;;;17.15;93.98
40946;BME280;55635;50.264;11.918;2022-10-16T05:17:26;95589.69;;;17.42;93.16
40946;BME280;55635;50.264;11.918;2022-10-16T05:20:07;95587.72;;;17.19;94.16
40946;BME280;55635;50.264;11.918;2022-10-16T05:22:48;95571.28;;;17.16;94.32
40946;BME280;55635;50.264;11.918;2022-10-16T05:25:29;95578.06;;;16.70;97.41
40946;BME280;55635;50.264;11.918;2022-10-16T05:28:10;95593.78;;;17.15;95.86
40946;BME280;55635;50.264;11.918;2022-10-16T05:30:51;95585.59;;;17.10;96.35
40946;BME280;55635;50.264;11.918;2022-10-16T05:33:31;95585.78;;;17.26;95.80
40946;BME280;55635;50.264;11.918;2022-10-16T05:36:12;95582.13;;;16.91;96.85
40946;BME280;55635;50.264;11.918;2022-10-16T05:38:53;95583.00;;;16.85;97.43
40946;BME280;55635;50.264;11.918;2022-10-16T05:41:34;95592.91;;;17.03;96.78
40946;BME280;55635;50.264;11.918;2022-10-16T05:44:15;95592.56;;;16.81;97.15
40946;BME280;55635;50.264;11.918;2022-10-16T05:46:56;95592.31;;;16.82;97.14
40946;BME280;55635;50.264;11.918;2022-10-16T05:49:36;95600.22;;;16.59;97.99
40946;BME280;55635;50.264;11.918;2022-10-16T05:52:18;95595.31;;;16.56;98.49
40946;BME280;55635;50.264;11.918;2022-10-16T05:54:59;95604.69;;;16.65;97.74
40946;BME280;55635;50.264;11.918;2022-10-16T05:57:40;95621.56;;;17.02;96.63
40946;BME280;55635;50.264;11.918;2022-10-16T06:00:21;95609.00;;;16.84;96.79
40946;BME280;55635;50.264;11.918;2022-10-16T06:03:01;95620.13;;;17.18;95.09
40946;BME280;55635;50.264;11.918;2022-10-16T06:05:42;95616.28;;;16.77;97.34
40946;BME280;55635;50.264;11.918;2022-10-16T06:08:23;95626.31;;;16.82;97.27
40946;BME280;55635;50.264;11.918;2022-10-16T06:11:08;95633.69;;;17.05;96.21
40946;BME280;55635;50.264;11.918;2022-10-16T06:13:51;95627.50;;;17.04;96.00
40946;BME280;55635;50.264;11.918;2022-10-16T06:16:34;95645.72;;;17.14;95.58
40946;BME280;55635;50.264;11.918;2022-10-16T06:19:15;95638.47;;;16.84;96.81
40946;BME280;55635;50.264;11.918;2022-10-16T06:21:56;95638.22;;;16.86;97.73
40946;BME280;55635;50.264;11.918;2022-10-16T06:24:38;95634.91;;;16.91;96.67
40946;BME280;55635;50.264;11.918;2022-10-16T06:27:19;95643.06;;;16.96;97.42
40946;BME280;55635;50.264;11.918;2022-10-16T06:30:00;95631.59;;;17.07;95.29
40946;BME280;55635;50.264;11.918;2022-10-16T06:32:41;95634.34;;;17.18;96.35
40946;BME280;55635;50.264;11.918;2022-10-16T06:35:21;95652.81;;;17.08;96.61
40946;BME280;55635;50.264;11.918;2022-10-16T06:38:02;95657.53;;;17.42;94.56
40946;BME280;55635;50.264;11.918;2022-10-16T06:40:43;95665.31;;;17.62;92.70
40946;BME280;55635;50.264;11.918;2022-10-16T06:43:24;95662.44;;;17.64;93.48
40946;BME280;55635;50.264;11.918;2022-10-16T06:46:06;95671.59;;;17.56;93.25
40946;BME280;55635;50.264;11.918;2022-10-16T06:48:51;95665.84;;;17.53;93.13
40946;BME280;55635;50.264;11.918;2022-10-16T06:51:32;95677.88;;;17.80;92.34
40946;BME280;55635;50.264;11.918;2022-10-16T06:54:15;95685.16;;;17.91;92.21
40946;BME280;55635;50.264;11.918;2022-10-16T06:56:56;95704.59;;;17.86;92.54
40946;BME280;55635;50.264;11.918;2022-10-16T06:59:37;95699.22;;;17.86;91.73
40946;BME280;55635;50.264;11.918;2022-10-16T07:02:18;95700.06;;;17.87;92.26
40946;BME280;55635;50.264;11.918;2022-10-16T07:04:59;95706.56;;;17.79;93.57
40946;BME280;55635;50.264;11.918;2022-10-16T07:07:40;95716.94;;;17.76;92.59
40946;BME280;55635;50.264;11.918;2022-10-16T07:10:20;95703.38;;;17.71;92.50
40946;BME280;55635;50.264;11.918;2022-10-16T07:13:04;95713.88;;;17.72;91.62
40946;BME280;55635;50.264;11.918;2022-10-16T07:15:45;95720.66;;;17.75;92.05
40946;BME280;55635;50.264;11.918;2022-10-16T07:18:26;95725.28;;;17.68;92.79
40946;BME280;55635;50.264;11.918;2022-10-16T07:21:14;95715.75;;;17.54;93.21
40946;BME280;55635;50.264;11.918;2022-10-16T07:23:57;95701.16;;;17.50;93.84
40946;BME280;55635;50.264;11.918;2022-10-16T07:26:39;95708.69;;;17.23;95.37
40946;BME280;55635;50.264;11.918;2022-10-16T07:29:21;95726.47;;;17.54;93.79
40946;BME280;55635;50.264;11.918;2022-10-16T07:32:02;95718.22;;;17.55;93.52
40946;BME280;55635;50.264;11.918;2022-10-16T07:34:43;95746.69;;;17.56;93.02
40946;BME280;55635;50.264;11.918;2022-10-16T07:37:24;95739.97;;;17.29;94.22
40946;BME280;55635;50.264;11.918;2022-10-16T07:40:05;95748.44;;;17.44;94.16
40946;BME280;55635;50.264;11.918;2022-10-16T07:42:46;95758.16;;;17.63;93.78
40946;BME280;55635;50.264;11.918;2022-10-16T07:45:27;95757.44;;;17.50;94.20
40946;BME280;55635;50.264;11.918;2022-10-16T07:48:07;95759.34;;;17.67;94.21
40946;BME280;55635;50.264;11.918;2022-10-16T07:50:48;95739.06;;;17.53;93.37
40946;BME280;55635;50.264;11.918;2022-10-16T07:53:29;95751.81;;;17.76;93.04
40946;BME280;55635;50.264;11.918;2022-10-16T07:56:10;95761.78;;;17.99;92.62
40946;BME280;55635;50.264;11.918;2022-10-16T07:58:52;95757.78;;;17.89;92.53
40946;BME280;55635;50.264;11.918;2022-10-16T08:01:33;95768.81;;;17.70;92.86
40946;BME280;55635;50.264;11.918;2022-10-16T08:04:13;95761.72;;;18.05;92.06
40946;BME280;55635;50.264;11.918;2022-10-16T08:06:54;95779.00;;;18.09;91.90
40946;BME280;55635;50.264;11.918;2022-10-16T08:09:35;95773.84;;;18.37;91.42
40946;BME280;55635;50.264;11.918;2022-10-16T08:12:16;95770.19;;;18.32;90.63
40946;BME280;55635;50.264;11.918;2022-10-16T08:14:57;95763.81;;;18.44;89.68
40946;BME280;55635;50.264;11.918;2022-10-16T08:17:37;95772.53;;;18.58;89.51
40946;BME280;55635;50.264;11.918;2022-10-16T08:20:18;95774.75;;;18.84;89.10
40946;BME280;55635;50.264;11.918;2022-10-16T08:23:00;95776.41;;;18.85;88.51
40946;BME280;55635;50.264;11.918;2022-10-16T08:25:41;95779.09;;;18.85;87.67
40946;BME280;55635;50.264;11.918;2022-10-16T08:28:22;95774.03;;;18.66;88.47
40946;BME280;55635;50.264;11.918;2022-10-16T08:31:14;95784.13;;;18.93;87.23
40946;BME280;55635;50.264;11.918;2022-10-16T08:33:55;95771.84;;;18.74;88.41
40946;BME280;55635;50.264;11.918;2022-10-16T08:36:36;95775.00;;;19.06;88.60
40946;BME280;55635;50.264;11.918;2022-10-16T08:39:17;95777.81;;;19.11;85.96
40946;BME280;55635;50.264;11.918;2022-10-16T08:42:11;95785.75;;;19.06;86.23
40946;BME280;55635;50.264;11.918;2022-10-16T08:48:08;95809.56;;;19.84;86.94
40946;BME280;55635;50.264;11.918;2022-10-16T08:50:52;95791.84;;;19.48;84.63
40946;BME280;55635;50.264;11.918;2022-10-16T08:53:38;95787.13;;;19.67;82.97
40946;BME280;55635;50.264;11.918;2022-10-16T08:56:24;95782.84;;;19.42;85.20
40946;BME280;55635;50.264;11.918;2022-10-16T08:59:09;95794.75;;;19.35;86.34
40946;BME280;55635;50.264;11.918;2022-10-16T09:01:51;95799.59;;;19.44;85.49
40946;BME280;55635;50.264;11.918;2022-10-16T09:04:56;95805.50;;;19.58;83.68
40946;BME280;55635;50.264;11.918;2022-10-16T09:08:25;95799.94;;;19.88;82.93
40946;BME280;55635;50.264;11.918;2022-10-16T09:11:09;95813.25;;;20.62;82.51
40946;BME280;55635;50.264;11.918;2022-10-16T09:17:00;95809.56;;;22.34;78.11
40946;BME280;55635;50.264;11.918;2022-10-16T09:19:46;95820.75;;;22.69;74.33
40946;BME280;55635;50.264;11.918;2022-10-16T09:22:30;95835.63;;;22.45;70.30
40946;BME280;55635;50.264;11.918;2022-10-16T09:25:20;95825.16;;;21.83;73.16
40946;BME280;55635;50.264;11.918;2022-10-16T09:28:01;95837.31;;;20.52;77.47
40946;BME280;55635;50.264;11.918;2022-10-16T09:30:42;95832.72;;;20.81;77.16
40946;BME280;55635;50.264;11.918;2022-10-16T09:33:25;95838.06;;;20.48;78.77
40946;BME280;55635;50.264;11.918;2022-10-16T09:36:08;95841.22;;;20.45;79.74
40946;BME280;55635;50.264;11.918;2022-10-16T09:39:02;95836.69;;;20.62;80.87
40946;BME280;55635;50.264;11.918;2022-10-16T09:41:44;95843.31;;;20.71;79.37
40946;BME280;55635;50.264;11.918;2022-10-16T09:44:30;95846.19;;;20.25;79.34
40946;BME280;55635;50.264;11.918;2022-10-16T09:47:17;95845.88;;;20.49;79.75
40946;BME280;55635;50.264;11.918;2022-10-16T09:50:04;95848.34;;;20.11;80.21
40946;BME280;55635;50.264;11.918;2022-10-16T09:52:46;95842.84;;;20.46;79.42
40946;BME280;55635;50.264;11.918;2022-10-16T09:55:27;95838.94;;;20.25;79.48
40946;BME280;55635;50.264;11.918;2022-10-16T09:58:11;95838.72;;;19.75;81.11
40946;BME280;55635;50.264;11.918;2022-10-16T10:00:54;95838.69;;;20.38;80.83
40946;BME280;55635;50.264;11.918;2022-10-16T10:03:39;95852.34;;;20.48;81.62
40946;BME280;55635;50.264;11.918;2022-10-16T10:06:24;95848.88;;;20.36;81.52
40946;BME280;55635;50.264;11.918;2022-10-16T10:12:29;95835.66;;;19.83;82.22
40946;BME280;55635;50.264;11.918;2022-10-16T10:15:13;95841.41;;;19.64;82.35
40946;BME280;55635;50.264;11.918;2022-10-16T10:17:58;95851.16;;;19.53;82.40
40946;BME280;55635;50.264;11.918;2022-10-16T10:20:40;95837.50;;;19.94;81.57
40946;BME280;55635;50.264;11.918;2022-10-16T10:23:25;95842.47;;;19.74;80.54
40946;BME280;55635;50.264;11.918;2022-10-16T10:26:21;95848.25;;;19.94;82.01
40946;BME280;55635;50.264;11.918;2022-10-16T10:29:23;95848.91;;;20.53;81.55
40946;BME280;55635;50.264;11.918;2022-10-16T10:38:00;95849.34;;;21.40;78.25
40946;BME280;55635;50.264;11.918;2022-10-16T10:41:10;95841.38;;;21.50;78.18
40946;BME280;55635;50.264;11.918;2022-10-16T10:47:01;95856.28;;;21.36;76.51
40946;BME280;55635;50.264;11.918;2022-10-16T11:01:11;95856.16;;;22.94;72.96
40946;BME280;55635;50.264;11.918;2022-10-16T11:07:01;95858.47;;;22.10;71.91
40946;BME280;55635;50.264;11.918;2022-10-16T11:09:47;95861.28;;;21.99;70.99
40946;BME280;55635;50.264;11.918;2022-10-16T11:12:49;95856.22;;;21.86;72.07
40946;BME280;55635;50.264;11.918;2022-10-16T11:15:35;95842.63;;;22.94;68.53
40946;BME280;55635;50.264;11.918;2022-10-16T11:18:30;95861.28;;;22.20;70.24
40946;BME280;55635;50.264;11.918;2022-10-16T11:21:14;95865.28;;;21.58;72.07
40946;BME280;55635;50.264;11.918;2022-10-16T11:24:06;95863.16;;;21.27;71.91
40946;BME280;55635;50.264;11.918;2022-10-16T11:26:52;95864.97;;;21.21;74.18
40946;BME280;55635;50.264;11.918;2022-10-16T11:29:34;95860.97;;;21.24;74.16
40946;BME280;55635;50.264;11.918;2022-10-16T11:32:22;95868.97;;;21.19;75.28
40946;BME280;55635;50.264;11.918;2022-10-16T11:35:15;95866.06;;;21.92;72.78
40946;BME280;55635;50.264;11.918;2022-10-16T11:37:59;95868.25;;;21.95;71.68
40946;BME280;55635;50.264;11.918;2022-10-16T11:40:43;95851.09;;;22.49;71.53
40946;BME280;55635;50.264;11.918;2022-10-16T11:43:39;95845.78;;;22.59;68.16
40946;BME280;55635;50.264;11.918;2022-10-16T11:46:21;95852.38;;;21.98;70.54
40946;BME280;55635;50.264;11.918;2022-10-16T11:49:24;95867.25;;;21.84;72.60
40946;BME280;55635;50.264;11.918;2022-10-16T11:55:39;95862.69;;;21.68;71.07
40946;BME280;55635;50.264;11.918;2022-10-16T12:01:36;95871.56;;;22.67;69.46
40946;BME280;55635;50.264;11.918;2022-10-16T12:04:30;95878.56;;;22.19;69.29
40946;BME280;55635;50.264;11.918;2022-10-16T12:07:17;95874.69;;;22.10;69.96
40946;BME280;55635;50.264;11.918;2022-10-16T12:10:10;95873.69;;;22.16;70.40
40946;BME280;55635;50.264;11.918;2022-10-16T12:12:51;95884.72;;;22.37;70.14
40946;BME280;55635;50.264;11.918;2022-10-16T12:15:33;95878.66;;;22.73;66.80
40946;BME280;55635;50.264;11.918;2022-10-16T12:18:24;95883.34;;;22.34;68.69
40946;BME280;55635;50.264;11.918;2022-10-16T12:21:05;95875.22;;;22.56;71.26
40946;BME280;55635;50.264;11.918;2022-10-16T12:23:49;95885.00;;;22.84;69.07
40946;BME280;55635;50.264;11.918;2022-10-16T12:26:37;95882.91;;;23.17;67.86
40946;BME280;55635;50.264;11.918;2022-10-16T12:29:39;95882.91;;;23.49;66.32
40946;BME280;55635;50.264;11.918;2022-10-16T12:35:30;95881.28;;;23.21;65.89
40946;BME280;55635;50.264;11.918;2022-10-16T12:41:06;95895.47;;;23.33;64.53
40946;BME280;55635;50.264;11.918;2022-10-16T12:43:49;95901.13;;;23.59;65.20
40946;BME280;55635;50.264;11.918;2022-10-16T12:51:55;95896.56;;;22.57;70.52
40946;BME280;55635;50.264;11.918;2022-10-16T12:54:38;95904.22;;;21.84;71.59
40946;BME280;55635;50.264;11.918;2022-10-16T12:57:41;95899.88;;;21.61;73.16
40946;BME280;55635;50.264;11.918;2022-10-16T13:01:02;95908.59;;;21.85;73.60
40946;BME280;55635;50.264;11.918;2022-10-16T13:07:19;95894.38;;;22.54;70.01
40946;BME280;55635;50.264;11.918;2022-10-16T13:13:19;95906.41;;;23.80;66.82
40946;BME280;55635;50.264;11.918;2022-10-16T13:16:22;95907.84;;;23.51;65.43
40946;BME280;55635;50.264;11.918;2022-10-16T13:28:10;95916.50;;;23.53;66.95
40946;BME280;55635;50.264;11.918;2022-10-16T13:30:53;95927.75;;;24.61;64.34
40946;BME280;55635;50.264;11.918;2022-10-16T13:33:36;95921.31;;;24.20;63.78
40946;BME280;55635;50.264;11.918;2022-10-16T13:36:23;95922.56;;;24.02;65.62
40946;BME280;55635;50.264;11.918;2022-10-16T13:42:00;95922.81;;;22.13;70.80
40946;BME280;55635;50.264;11.918;2022-10-16T13:44:43;95926.03;;;21.44;74.83
40946;BME280;55635;50.264;11.918;2022-10-16T13:47:27;95927.53;;;21.06;78.15
40946;BME280;55635;50.264;11.918;2022-10-16T13:50:14;95931.09;;;21.90;75.81
40946;BME280;55635;50.264;11.918;2022-10-16T13:53:12;95931.69;;;21.42;75.35
40946;BME280;55635;50.264;11.918;2022-10-16T13:55:53;95933.34;;;20.70;77.93
40946;BME280;55635;50.264;11.918;2022-10-16T13:58:34;95941.06;;;21.23;77.87
40946;BME280;55635;50.264;11.918;2022-10-16T14:01:26;95945.56;;;21.84;75.96
40946;BME280;55635;50.264;11.918;2022-10-16T14:04:10;95939.94;;;21.36;76.14
40946;BME280;55635;50.264;11.918;2022-10-16T14:06:52;95929.28;;;21.29;79.48
40946;BME280;55635;50.264;11.918;2022-10-16T14:09:33;95937.50;;;21.06;76.70
40946;BME280;55635;50.264;11.918;2022-10-16T14:12:15;95940.97;;;21.35;77.45
40946;BME280;55635;50.264;11.918;2022-10-16T14:14:57;95949.19;;;21.73;77.56
40946;BME280;55635;50.264;11.918;2022-10-16T14:17:44;95951.88;;;21.56;76.81
40946;BME280;55635;50.264;11.918;2022-10-16T14:20:28;95944.91;;;21.44;77.53
40946;BME280;55635;50.264;11.918;2022-10-16T14:29:02;95947.28;;;20.67;80.07
40946;BME280;55635;50.264;11.918;2022-10-16T14:32:05;95947.75;;;21.21;78.46
40946;BME280;55635;50.264;11.918;2022-10-16T14:34:52;95947.84;;;21.26;76.34
40946;BME280;55635;50.264;11.918;2022-10-16T14:37:34;95951.53;;;20.91;76.59
40946;BME280;55635;50.264;11.918;2022-10-16T14:40:14;95955.28;;;21.07;76.67
40946;BME280;55635;50.264;11.918;2022-10-16T14:42:56;95943.19;;;21.38;74.92
40946;BME280;55635;50.264;11.918;2022-10-16T14:45:37;95957.81;;;20.69;76.85
40946;BME280;55635;50.264;11.918;2022-10-16T14:48:21;95946.66;;;20.77;76.52
40946;BME280;55635;50.264;11.918;2022-10-16T14:51:02;95960.81;;;20.44;78.19
40946;BME280;55635;50.264;11.918;2022-10-16T14:53:43;95960.38;;;20.00;79.98
40946;BME280;55635;50.264;11.918;2022-10-16T14:56:25;95953.81;;;20.31;79.84
40946;BME280;55635;50.264;11.918;2022-10-16T15:02:34;95959.81;;;19.98;79.73
40946;BME280;55635;50.264;11.918;2022-10-16T15:05:22;95944.97;;;19.84;79.39
40946;BME280;55635;50.264;11.918;2022-10-16T15:08:04;95957.94;;;19.99;80.37
40946;BME280;55635;50.264;11.918;2022-10-16T15:10:47;95954.72;;;20.37;79.07
40946;BME280;55635;50.264;11.918;2022-10-16T15:13:28;95966.34;;;20.26;79.47
40946;BME280;55635;50.264;11.918;2022-10-16T15:16:13;95943.88;;;20.32;78.43
40946;BME280;55635;50.264;11.918;2022-10-16T15:18:55;95967.06;;;20.33;79.05
40946;BME280;55635;50.264;11.918;2022-10-16T15:21:35;95973.97;;;20.05;80.38
40946;BME280;55635;50.264;11.918;2022-10-16T15:24:16;95983.22;;;19.98;81.51
40946;BME280;55635;50.264;11.918;2022-10-16T15:26:57;95968.09;;;19.85;80.67
40946;BME280;55635;50.264;11.918;2022-10-16T15:29:38;95973.00;;;20.00;81.01
40946;BME280;55635;50.264;11.918;2022-10-16T15:32:19;95975.00;;;20.04;80.92
40946;BME280;55635;50.264;11.918;2022-10-16T15:34:59;95973.41;;;20.27;79.91
40946;BME280;55635;50.264;11.918;2022-10-16T15:37:40;95987.28;;;20.00;80.68